ěÝzenÝ letovÚho provozu ╚eskÚ republiky
Letiste: LKBC Aktualizace: 07.07.2020 15:56:24  UTC
 METAR LKBC 07.07. 16:00 ...
METAR LKBC 071600Z AUTO 28006KT 260V320 9999 FEW076 19/05 Q1019=